Time;durP1;ratioP1;P1;durP2;ratioP2;P2;SDS_P1;SDS_P2;PMS_P1;PMS_P2;Temp;Humidity;BMP_temperature;BMP_pressure;BME280_temperature;BME280_humidity;BME280_pressure;Samples;Min_cycle;Max_cycle;Signal;HPM_P1;HPM_P2
2022/08/08 00:01:54;;;;;;;;;;;26.60;41.70;;;;;;5052206;28;19912;-61
2022/08/08 00:04:19;;;;;;;;;;;26.60;41.80;;;;;;5049868;28;20339;-61
2022/08/08 00:06:48;;;;;;;;;;;26.60;41.80;;;;;;5050591;28;20011;-61
2022/08/08 00:09:24;;;;;;;;;;;26.60;41.90;;;;;;5049616;28;19918;-61
2022/08/08 00:11:51;;;;;;;;;;;26.60;41.70;;;;;;5050699;28;19923;-62
2022/08/08 00:14:36;;;;;;;;;;;26.60;41.70;;;;;;5058332;28;19925;-61
2022/08/08 00:17:04;;;;;;;;;;;26.60;41.70;;;;;;5045845;28;19951;-61
2022/08/08 00:19:48;;;;;;;;;;;26.60;41.80;;;;;;5047330;28;19920;-61
2022/08/08 00:22:16;;;;;;;;;;;26.60;41.90;;;;;;5046269;28;20280;-62
2022/08/08 00:24:42;;;;;;;;;;;26.60;41.90;;;;;;5044370;28;19917;-61
2022/08/08 00:27:08;;;;;;;;;;;26.60;41.90;;;;;;5047602;28;20007;-61
2022/08/08 00:29:38;;;;;;;;;;;26.60;41.80;;;;;;5046107;28;19996;-61
2022/08/08 00:32:04;;;;;;;;;;;26.60;41.90;;;;;;5047901;28;19916;-61
2022/08/08 00:37:49;;;;;;;;;;;26.60;42.00;;;;;;5049537;28;19924;-61
2022/08/08 00:40:26;;;;;;;;;;;26.50;41.90;;;;;;5052533;28;19946;-61
2022/08/08 00:43:04;;;;;;;;;;;26.50;41.80;;;;;;5052118;28;19909;-61
2022/08/08 00:45:44;;;;;;;;;;;26.50;41.90;;;;;;5051460;28;20376;-61
2022/08/08 00:48:15;;;;;;;;;;;26.50;41.90;;;;;;5047900;28;20292;-61
2022/08/08 00:50:47;;;;;;;;;;;26.50;42.00;;;;;;5049488;28;19927;-61
2022/08/08 00:53:31;;;;;;;;;;;26.50;42.00;;;;;;5045669;28;20315;-61
2022/08/08 00:56:04;;;;;;;;;;;26.50;42.10;;;;;;5047552;28;20408;-62
2022/08/08 00:58:41;;;;;;;;;;;26.50;42.10;;;;;;5049611;28;19962;-61
2022/08/08 01:01:16;;;;;;;;;;;26.40;42.10;;;;;;5046655;28;20054;-61
2022/08/08 01:03:41;;;;;;;;;;;26.50;42.10;;;;;;5048672;28;19920;-61
2022/08/08 01:06:42;;;;;;;;;;;26.40;42.20;;;;;;5051773;28;20003;-61
2022/08/08 01:09:13;;;;;;;;;;;26.40;42.30;;;;;;4969158;28;19958;-61
2022/08/08 01:11:57;;;;;;;;;;;26.40;42.30;;;;;;5035150;28;20030;-61
2022/08/08 01:14:31;;;;;;;;;;;26.40;42.20;;;;;;5050814;28;19971;-61
2022/08/08 01:17:15;;;;;;;;;;;26.40;42.40;;;;;;5047412;28;19917;-61
2022/08/08 01:20:00;;;;;;;;;;;26.40;42.20;;;;;;5046782;28;19968;-61
2022/08/08 01:22:29;;;;;;;;;;;26.40;42.40;;;;;;5047059;28;20013;-61
2022/08/08 01:25:16;;;;;;;;;;;26.40;42.40;;;;;;5051473;28;20027;-61
2022/08/08 01:28:00;;;;;;;;;;;26.40;42.40;;;;;;5034519;28;19917;-61
2022/08/08 01:30:44;;;;;;;;;;;26.40;42.50;;;;;;5039872;28;20003;-61
2022/08/08 01:33:10;;;;;;;;;;;26.30;42.70;;;;;;5049014;28;19916;-61
2022/08/08 01:35:35;;;;;;;;;;;26.30;42.70;;;;;;5048629;28;19916;-61
2022/08/08 01:38:04;;;;;;;;;;;26.30;42.70;;;;;;5046006;28;19969;-61
2022/08/08 01:40:36;;;;;;;;;;;26.30;42.70;;;;;;5050437;28;19959;-61
2022/08/08 01:43:11;;;;;;;;;;;26.20;42.60;;;;;;5050468;28;20345;-61
2022/08/08 01:45:56;;;;;;;;;;;26.30;42.70;;;;;;5050884;28;19955;-61
2022/08/08 01:48:38;;;;;;;;;;;26.20;42.70;;;;;;5045218;28;20295;-61
2022/08/08 01:51:03;;;;;;;;;;;26.20;42.90;;;;;;5030382;28;19916;-61
2022/08/08 01:53:29;;;;;;;;;;;26.20;42.90;;;;;;5030947;28;20384;-61
2022/08/08 01:55:57;;;;;;;;;;;26.20;43.00;;;;;;5031770;28;20404;-61
2022/08/08 01:58:27;;;;;;;;;;;26.20;43.00;;;;;;5041633;28;19913;-61
2022/08/08 02:01:11;;;;;;;;;;;26.10;43.00;;;;;;5050412;28;19913;-61
2022/08/08 02:03:40;;;;;;;;;;;26.10;43.30;;;;;;5051550;28;19996;-61
2022/08/08 02:06:05;;;;;;;;;;;26.10;43.20;;;;;;5050125;28;19912;-61
2022/08/08 02:08:37;;;;;;;;;;;26.10;43.30;;;;;;5049616;28;19919;-61
2022/08/08 02:11:14;;;;;;;;;;;26.00;43.30;;;;;;5050328;28;19913;-61
2022/08/08 02:14:08;;;;;;;;;;;26.00;43.40;;;;;;5040297;28;20339;-61
2022/08/08 02:16:52;;;;;;;;;;;26.00;43.40;;;;;;4987183;28;19917;-61
2022/08/08 02:19:18;;;;;;;;;;;26.00;43.40;;;;;;5045156;28;20659;-61
2022/08/08 02:24:42;;;;;;;;;;;26.00;43.30;;;;;;5048710;28;19916;-61
2022/08/08 02:27:16;;;;;;;;;;;26.00;43.50;;;;;;5051627;28;20023;-61
2022/08/08 02:29:51;;;;;;;;;;;26.00;43.50;;;;;;5051606;28;20276;-61
2022/08/08 02:32:34;;;;;;;;;;;25.90;43.50;;;;;;5053933;28;19948;-61
2022/08/08 02:35:00;;;;;;;;;;;25.90;43.50;;;;;;5052543;28;19913;-61
2022/08/08 02:37:34;;;;;;;;;;;26.00;43.50;;;;;;5054326;28;19920;-61
2022/08/08 02:40:07;;;;;;;;;;;25.90;43.50;;;;;;5053780;28;20360;-61
2022/08/08 02:42:51;;;;;;;;;;;25.90;43.50;;;;;;5054606;28;19909;-61
2022/08/08 02:45:21;;;;;;;;;;;25.90;43.50;;;;;;5053566;28;19909;-61
2022/08/08 02:48:04;;;;;;;;;;;25.90;43.50;;;;;;5044880;28;19917;-61
2022/08/08 02:50:32;;;;;;;;;;;25.90;43.50;;;;;;5042817;28;20296;-61
2022/08/08 02:53:01;;;;;;;;;;;25.90;43.60;;;;;;5054044;28;20381;-61
2022/08/08 02:55:45;;;;;;;;;;;25.80;43.60;;;;;;5051189;28;19924;-61
2022/08/08 02:58:27;;;;;;;;;;;25.80;43.60;;;;;;5052654;28;19921;-61
2022/08/08 03:01:01;;;;;;;;;;;25.70;43.80;;;;;;5052972;28;19908;-61
2022/08/08 03:03:50;;;;;;;;;;;25.80;43.90;;;;;;5054034;28;19913;-61
2022/08/08 03:06:22;;;;;;;;;;;25.70;43.90;;;;;;5031742;28;19910;-62
2022/08/08 03:08:55;;;;;;;;;;;25.70;43.90;;;;;;5042095;28;19917;-61
2022/08/08 03:11:39;;;;;;;;;;;25.70;43.80;;;;;;5032960;28;19920;-61
2022/08/08 03:14:19;;;;;;;;;;;25.70;43.90;;;;;;5053532;28;19925;-61
2022/08/08 03:17:00;;;;;;;;;;;25.60;44.00;;;;;;5054016;28;19913;-61
2022/08/08 03:19:26;;;;;;;;;;;25.70;43.90;;;;;;5047900;28;19975;-60
2022/08/08 03:21:51;;;;;;;;;;;25.80;43.80;;;;;;5050721;28;19912;-61
2022/08/08 03:24:17;;;;;;;;;;;25.80;43.80;;;;;;5051755;28;19959;-61
2022/08/08 03:26:43;;;;;;;;;;;25.80;43.80;;;;;;5049320;28;19923;-61
2022/08/08 03:29:10;;;;;;;;;;;25.80;43.90;;;;;;5046154;28;19913;-61
2022/08/08 03:34:20;;;;;;;;;;;25.70;43.90;;;;;;5050717;28;19923;-61
2022/08/08 03:36:45;;;;;;;;;;;25.70;43.90;;;;;;5048696;28;19913;-61
2022/08/08 03:39:11;;;;;;;;;;;25.70;43.90;;;;;;5051314;28;19920;-61
2022/08/08 03:41:37;;;;;;;;;;;25.70;44.00;;;;;;5051691;28;19920;-61
2022/08/08 03:44:02;;;;;;;;;;;25.70;44.10;;;;;;5051119;28;19913;-61
2022/08/08 03:46:28;;;;;;;;;;;25.70;44.00;;;;;;5049229;28;19912;-62
2022/08/08 03:48:56;;;;;;;;;;;25.70;44.10;;;;;;5049281;28;19924;-61
2022/08/08 03:51:23;;;;;;;;;;;25.70;44.70;;;;;;5052212;28;19917;-61
2022/08/08 03:53:49;;;;;;;;;;;25.70;44.00;;;;;;5049084;28;19925;-61
2022/08/08 03:56:14;;;;;;;;;;;25.60;44.10;;;;;;5051896;28;19917;-61
2022/08/08 03:58:40;;;;;;;;;;;25.60;44.20;;;;;;5051449;28;19913;-61
2022/08/08 04:01:06;;;;;;;;;;;25.60;44.20;;;;;;5053307;28;19909;-61
2022/08/08 04:03:34;;;;;;;;;;;25.70;44.20;;;;;;5052706;28;20003;-61
2022/08/08 04:06:03;;;;;;;;;;;25.70;44.10;;;;;;5052056;28;19923;-61
2022/08/08 04:08:29;;;;;;;;;;;25.70;44.10;;;;;;5052033;28;19962;-61
2022/08/08 04:10:54;;;;;;;;;;;25.80;44.20;;;;;;5052871;28;20277;-61
2022/08/08 04:13:20;;;;;;;;;;;25.70;44.10;;;;;;5047153;28;19917;-61
2022/08/08 04:15:45;;;;;;;;;;;25.60;44.10;;;;;;5053648;28;19921;-61
2022/08/08 04:18:11;;;;;;;;;;;25.60;44.30;;;;;;5050458;28;19978;-61
2022/08/08 04:20:36;;;;;;;;;;;25.60;44.40;;;;;;5052730;28;19913;-61
2022/08/08 04:23:02;;;;;;;;;;;25.50;44.40;;;;;;5051834;28;19959;-61
2022/08/08 04:25:27;;;;;;;;;;;25.60;45.20;;;;;;5052412;28;19912;-61
2022/08/08 04:27:52;;;;;;;;;;;25.60;44.40;;;;;;5052538;28;20330;-61
2022/08/08 04:30:18;;;;;;;;;;;25.60;44.40;;;;;;5051617;28;20433;-61
2022/08/08 04:32:43;;;;;;;;;;;25.60;44.30;;;;;;5052429;28;20260;-61
2022/08/08 04:35:09;;;;;;;;;;;25.60;44.60;;;;;;5052228;28;20565;-61
2022/08/08 04:37:34;;;;;;;;;;;25.60;44.50;;;;;;5050351;28;19917;-61
2022/08/08 04:40:00;;;;;;;;;;;25.60;44.50;;;;;;5051688;28;19909;-61
2022/08/08 04:42:25;;;;;;;;;;;25.60;44.30;;;;;;5049888;28;20044;-61
2022/08/08 04:44:52;;;;;;;;;;;25.60;44.60;;;;;;5050768;28;19970;-61
2022/08/08 04:47:18;;;;;;;;;;;25.60;44.50;;;;;;5052104;28;19909;-61
2022/08/08 04:49:43;;;;;;;;;;;25.50;44.50;;;;;;5052108;28;19909;-62
2022/08/08 04:52:09;;;;;;;;;;;25.60;44.60;;;;;;5052258;28;20339;-61
2022/08/08 04:54:34;;;;;;;;;;;25.50;44.60;;;;;;5050387;28;19913;-61
2022/08/08 04:57:00;;;;;;;;;;;25.60;44.60;;;;;;5051991;28;20280;-61
2022/08/08 04:59:25;;;;;;;;;;;25.60;44.50;;;;;;5050565;28;20292;-61
2022/08/08 05:01:51;;;;;;;;;;;25.60;44.60;;;;;;5052005;28;19958;-61
2022/08/08 05:04:16;;;;;;;;;;;25.60;44.70;;;;;;5051785;28;19927;-61
2022/08/08 05:06:41;;;;;;;;;;;25.60;44.50;;;;;;5051272;28;20302;-61
2022/08/08 05:09:07;;;;;;;;;;;25.60;44.50;;;;;;5050923;28;19978;-61
2022/08/08 05:11:32;;;;;;;;;;;25.50;44.50;;;;;;5052194;28;19909;-61
2022/08/08 05:13:58;;;;;;;;;;;25.60;44.60;;;;;;5049117;28;19983;-61
2022/08/08 05:16:23;;;;;;;;;;;25.60;44.50;;;;;;5048772;28;20007;-61
2022/08/08 05:18:49;;;;;;;;;;;25.60;44.50;;;;;;5048557;28;20381;-61
2022/08/08 05:21:14;;;;;;;;;;;25.60;44.60;;;;;;5050912;28;19920;-61
2022/08/08 05:23:42;;;;;;;;;;;25.50;44.60;;;;;;5048687;28;19928;-61
2022/08/08 05:26:08;;;;;;;;;;;25.60;44.60;;;;;;5049791;28;20277;-61
2022/08/08 05:28:33;;;;;;;;;;;25.60;44.50;;;;;;5066685;28;19916;-61
2022/08/08 05:30:59;;;;;;;;;;;25.60;44.60;;;;;;5048993;28;19920;-61
2022/08/08 05:33:24;;;;;;;;;;;25.60;44.50;;;;;;5051763;28;19935;-61
2022/08/08 05:35:50;;;;;;;;;;;25.60;44.50;;;;;;5047485;28;19955;-61
2022/08/08 05:38:16;;;;;;;;;;;25.60;44.50;;;;;;5061762;28;19970;-61
2022/08/08 05:40:44;;;;;;;;;;;25.60;44.40;;;;;;5049515;28;19927;-61
2022/08/08 05:43:09;;;;;;;;;;;25.60;44.50;;;;;;5049968;28;19916;-61
2022/08/08 05:45:35;;;;;;;;;;;25.60;44.50;;;;;;5050221;28;20347;-61
2022/08/08 05:48:01;;;;;;;;;;;25.60;44.50;;;;;;5051213;28;19909;-61
2022/08/08 05:50:27;;;;;;;;;;;25.60;44.60;;;;;;5051199;28;19919;-61
2022/08/08 05:52:53;;;;;;;;;;;25.60;44.50;;;;;;5051298;28;19972;-61
2022/08/08 05:55:19;;;;;;;;;;;25.60;44.40;;;;;;5051524;28;19909;-61
2022/08/08 05:57:44;;;;;;;;;;;25.60;44.40;;;;;;5055549;28;20383;-61
2022/08/08 06:00:10;;;;;;;;;;;25.70;44.40;;;;;;5050979;28;19921;-61
2022/08/08 06:05:20;;;;;;;;;;;25.80;44.30;;;;;;5047531;28;19924;-61
2022/08/08 06:07:46;;;;;;;;;;;25.70;44.20;;;;;;5053164;28;20304;-61
2022/08/08 06:10:11;;;;;;;;;;;25.70;44.20;;;;;;5053742;28;20381;-62
2022/08/08 06:12:37;;;;;;;;;;;25.60;44.20;;;;;;5054127;28;20376;-61
2022/08/08 06:15:03;;;;;;;;;;;25.60;44.40;;;;;;5053359;28;20039;-61
2022/08/08 06:17:32;;;;;;;;;;;25.60;44.40;;;;;;5052652;28;19927;-61
2022/08/08 06:19:58;;;;;;;;;;;25.60;44.50;;;;;;5052851;28;19936;-61
2022/08/08 06:22:24;;;;;;;;;;;25.60;44.50;;;;;;5040667;28;20372;-61
2022/08/08 06:24:49;;;;;;;;;;;25.60;44.50;;;;;;5050277;28;19928;-61
2022/08/08 06:27:14;;;;;;;;;;;25.60;44.50;;;;;;5053306;28;20008;-61
2022/08/08 06:29:58;;;;;;;;;;;25.70;45.10;;;;;;5053910;28;19917;-61
2022/08/08 06:32:26;;;;;;;;;;;25.60;44.50;;;;;;5048454;28;19913;-61
2022/08/08 06:34:53;;;;;;;;;;;25.60;44.60;;;;;;5049266;28;20434;-61
2022/08/08 06:37:21;;;;;;;;;;;25.60;44.60;;;;;;5044180;28;19971;-62
2022/08/08 06:39:49;;;;;;;;;;;25.60;44.60;;;;;;5052153;28;19920;-62
2022/08/08 06:42:14;;;;;;;;;;;25.50;44.60;;;;;;5047303;28;19917;-62
2022/08/08 06:44:40;;;;;;;;;;;25.50;44.50;;;;;;5047423;28;20416;-61
2022/08/08 06:47:05;;;;;;;;;;;25.50;44.50;;;;;;5054772;28;20363;-61
2022/08/08 06:49:31;;;;;;;;;;;25.50;44.60;;;;;;5052810;28;20293;-62
2022/08/08 06:51:56;;;;;;;;;;;25.50;44.50;;;;;;5053787;28;19916;-61
2022/08/08 06:54:21;;;;;;;;;;;25.50;44.40;;;;;;5052929;28;19924;-61
2022/08/08 06:56:48;;;;;;;;;;;25.50;44.30;;;;;;5053929;28;19917;-61
2022/08/08 06:59:13;;;;;;;;;;;25.50;44.40;;;;;;5053713;28;20323;-60
2022/08/08 07:01:43;;;;;;;;;;;25.50;44.50;;;;;;5053942;28;19917;-62
2022/08/08 07:04:09;;;;;;;;;;;25.50;44.50;;;;;;5035064;28;19971;-61
2022/08/08 07:06:34;;;;;;;;;;;25.40;44.50;;;;;;5048281;28;19917;-61
2022/08/08 07:09:02;;;;;;;;;;;25.50;44.60;;;;;;5051957;28;19909;-61
2022/08/08 07:11:28;;;;;;;;;;;25.50;44.50;;;;;;5050802;28;19966;-61
2022/08/08 07:13:56;;;;;;;;;;;25.50;44.40;;;;;;5050930;28;19921;-61
2022/08/08 07:16:26;;;;;;;;;;;25.50;44.50;;;;;;5045202;28;20314;-61
2022/08/08 07:19:05;;;;;;;;;;;25.50;44.50;;;;;;5051851;28;19927;-61
2022/08/08 07:21:41;;;;;;;;;;;25.50;44.50;;;;;;5051511;28;20276;-61
2022/08/08 07:24:07;;;;;;;;;;;25.60;44.50;;;;;;5049792;28;19917;-61
2022/08/08 07:26:32;;;;;;;;;;;25.60;44.70;;;;;;5046896;28;20037;-61
2022/08/08 07:28:58;;;;;;;;;;;25.40;44.80;;;;;;5049593;28;20004;-61
2022/08/08 07:31:23;;;;;;;;;;;25.30;45.10;;;;;;5049348;28;20004;-61
2022/08/08 07:33:49;;;;;;;;;;;25.30;44.90;;;;;;5049857;28;20369;-62
2022/08/08 07:36:14;;;;;;;;;;;25.40;44.70;;;;;;5046655;28;19919;-60
2022/08/08 07:38:40;;;;;;;;;;;25.50;44.60;;;;;;5046797;28;19921;-61
2022/08/08 07:41:06;;;;;;;;;;;25.50;44.80;;;;;;5050570;28;20279;-60
2022/08/08 07:43:31;;;;;;;;;;;25.40;44.90;;;;;;5048094;28;19917;-61
2022/08/08 07:45:57;;;;;;;;;;;25.40;45.40;;;;;;5050214;28;19921;-60
2022/08/08 07:48:22;;;;;;;;;;;25.50;44.90;;;;;;5053212;28;19913;-59
2022/08/08 07:50:48;;;;;;;;;;;25.40;44.80;;;;;;5050338;28;19913;-60
2022/08/08 07:53:33;;;;;;;;;;;25.50;44.70;;;;;;5066672;28;20107;-60
2022/08/08 07:55:59;;;;;;;;;;;25.50;44.60;;;;;;5051541;28;19917;-61
2022/08/08 07:58:31;;;;;;;;;;;25.60;44.30;;;;;;5050355;28;19924;-60
2022/08/08 08:00:58;;;;;;;;;;;25.60;44.20;;;;;;5047671;28;20407;-60
2022/08/08 08:03:34;;;;;;;;;;;25.60;44.20;;;;;;5049684;28;19917;-61
2022/08/08 08:06:00;;;;;;;;;;;25.60;44.30;;;;;;5049919;28;19917;-60
2022/08/08 08:08:27;;;;;;;;;;;25.60;44.10;;;;;;5049562;28;19944;-61
2022/08/08 08:10:54;;;;;;;;;;;25.60;44.10;;;;;;5049602;28;20013;-61
2022/08/08 08:13:24;;;;;;;;;;;25.60;44.30;;;;;;5048937;28;19921;-61
2022/08/08 08:16:08;;;;;;;;;;;25.50;44.30;;;;;;5048589;28;19920;-61
2022/08/08 08:18:40;;;;;;;;;;;25.60;44.10;;;;;;5041748;28;19916;-60
2022/08/08 08:21:07;;;;;;;;;;;25.60;44.00;;;;;;5051751;28;20260;-62
2022/08/08 08:23:32;;;;;;;;;;;25.60;44.10;;;;;;5047383;28;19923;-60
2022/08/08 08:25:58;;;;;;;;;;;25.60;43.90;;;;;;5049723;28;19913;-61
2022/08/08 08:28:24;;;;;;;;;;;25.60;43.90;;;;;;5049844;28;19920;-61
2022/08/08 08:30:50;;;;;;;;;;;25.60;43.70;;;;;;5045980;28;20377;-61
2022/08/08 08:33:15;;;;;;;;;;;25.60;43.70;;;;;;5049827;28;19913;-59
2022/08/08 08:35:40;;;;;;;;;;;25.60;43.60;;;;;;5051464;28;20388;-61
2022/08/08 08:38:06;;;;;;;;;;;25.50;43.60;;;;;;5049061;28;19924;-61
2022/08/08 08:40:32;;;;;;;;;;;25.50;43.60;;;;;;5051075;28;19927;-62
2022/08/08 08:42:57;;;;;;;;;;;25.50;43.50;;;;;;5049738;28;19920;-62
2022/08/08 08:45:23;;;;;;;;;;;25.60;43.20;;;;;;5065938;28;19952;-62
2022/08/08 08:47:52;;;;;;;;;;;25.50;43.20;;;;;;5051068;28;19920;-62
2022/08/08 08:50:17;;;;;;;;;;;25.50;43.30;;;;;;5048554;28;19943;-61
2022/08/08 08:52:43;;;;;;;;;;;25.60;43.00;;;;;;5050449;28;19917;-62
2022/08/08 08:55:10;;;;;;;;;;;25.60;42.80;;;;;;5049092;28;19999;-62
2022/08/08 08:57:35;;;;;;;;;;;25.70;42.70;;;;;;5035904;28;20296;-62
2022/08/08 09:00:01;;;;;;;;;;;25.80;42.40;;;;;;5047567;28;19909;-59
2022/08/08 09:02:27;;;;;;;;;;;25.80;42.10;;;;;;5046453;28;19943;-60
2022/08/08 09:04:54;;;;;;;;;;;25.80;41.70;;;;;;5046579;28;20007;-60
2022/08/08 09:07:21;;;;;;;;;;;25.80;41.50;;;;;;5049284;28;19917;-62
2022/08/08 09:09:51;;;;;;;;;;;25.80;41.60;;;;;;5047982;28;20369;-61
2022/08/08 09:12:17;;;;;;;;;;;25.80;41.60;;;;;;5039211;28;20027;-59
2022/08/08 09:14:43;;;;;;;;;;;25.80;41.50;;;;;;5048050;28;20300;-60
2022/08/08 09:17:09;;;;;;;;;;;25.80;41.50;;;;;;5050065;28;19919;-61
2022/08/08 09:19:34;;;;;;;;;;;25.80;41.70;;;;;;5045101;28;19928;-59
2022/08/08 09:21:59;;;;;;;;;;;25.80;41.70;;;;;;5046992;28;19959;-60
2022/08/08 09:24:25;;;;;;;;;;;25.80;41.80;;;;;;5048273;28;19917;-62
2022/08/08 09:26:51;;;;;;;;;;;25.80;41.90;;;;;;5049768;28;19944;-60
2022/08/08 09:29:21;;;;;;;;;;;25.80;42.00;;;;;;5049141;28;19913;-60
2022/08/08 09:31:53;;;;;;;;;;;25.80;42.10;;;;;;5053820;28;19912;-61
2022/08/08 09:34:19;;;;;;;;;;;25.80;41.90;;;;;;5052794;28;19912;-63
2022/08/08 09:36:45;;;;;;;;;;;25.80;41.90;;;;;;5053267;28;19936;-61
2022/08/08 09:39:10;;;;;;;;;;;25.80;41.80;;;;;;5050750;28;19923;-61
2022/08/08 09:41:39;;;;;;;;;;;25.90;41.70;;;;;;5052165;28;19920;-60
2022/08/08 09:44:14;;;;;;;;;;;25.90;41.80;;;;;;5049256;28;19958;-60
2022/08/08 09:46:39;;;;;;;;;;;25.80;41.90;;;;;;5053587;28;19939;-61
2022/08/08 09:49:05;;;;;;;;;;;25.70;42.10;;;;;;5053000;28;19917;-62
2022/08/08 09:51:30;;;;;;;;;;;25.80;42.30;;;;;;5050786;28;20014;-62
2022/08/08 09:53:57;;;;;;;;;;;25.80;42.70;;;;;;5052712;28;19960;-62
2022/08/08 09:56:22;;;;;;;;;;;25.80;42.70;;;;;;5053738;28;20391;-60
2022/08/08 09:58:52;;;;;;;;;;;25.80;43.00;;;;;;5056584;28;20015;-61
2022/08/08 10:01:19;;;;;;;;;;;25.90;43.10;;;;;;5053742;28;19913;-61
2022/08/08 10:03:45;;;;;;;;;;;25.80;43.50;;;;;;5041065;28;20297;-62
2022/08/08 10:06:14;;;;;;;;;;;25.90;43.60;;;;;;5032546;28;19995;-62
2022/08/08 10:08:46;;;;;;;;;;;25.90;43.70;;;;;;5052379;28;19913;-62
2022/08/08 10:11:15;;;;;;;;;;;26.00;43.80;;;;;;5048828;28;20293;-61
2022/08/08 10:13:50;;;;;;;;;;;25.90;44.10;;;;;;5048197;28;19974;-61
2022/08/08 10:16:16;;;;;;;;;;;25.90;44.10;;;;;;5049362;28;19943;-62
2022/08/08 10:18:41;;;;;;;;;;;26.00;44.40;;;;;;5046408;28;19925;-62
2022/08/08 10:21:08;;;;;;;;;;;25.90;44.50;;;;;;5050234;28;19952;-62
2022/08/08 10:23:33;;;;;;;;;;;25.90;44.70;;;;;;5047675;28;19917;-62
2022/08/08 10:25:59;;;;;;;;;;;25.90;44.70;;;;;;5045229;28;19928;-60
2022/08/08 10:28:24;;;;;;;;;;;25.90;44.70;;;;;;5045516;28;19943;-60
2022/08/08 10:30:54;;;;;;;;;;;26.00;44.90;;;;;;5045663;28;20277;-61
2022/08/08 10:33:26;;;;;;;;;;;25.90;44.90;;;;;;5046695;28;19920;-59
2022/08/08 10:35:55;;;;;;;;;;;26.00;45.10;;;;;;5045814;28;20353;-60
2022/08/08 10:38:21;;;;;;;;;;;26.00;45.10;;;;;;5046284;28;19923;-61
2022/08/08 10:40:49;;;;;;;;;;;26.00;45.00;;;;;;5045167;28;19913;-62
2022/08/08 10:43:14;;;;;;;;;;;26.00;45.00;;;;;;5046503;28;20044;-61
2022/08/08 10:45:43;;;;;;;;;;;26.00;45.10;;;;;;5047639;28;19912;-61
2022/08/08 10:48:09;;;;;;;;;;;26.10;45.10;;;;;;5048104;28;19920;-61
2022/08/08 10:50:35;;;;;;;;;;;26.10;45.10;;;;;;5044747;28;19916;-62
2022/08/08 10:53:02;;;;;;;;;;;26.20;44.90;;;;;;5048493;28;20331;-61
2022/08/08 10:55:27;;;;;;;;;;;26.10;44.80;;;;;;5045647;28;19958;-60
2022/08/08 10:57:53;;;;;;;;;;;26.10;44.80;;;;;;5048364;28;20386;-61
2022/08/08 11:00:25;;;;;;;;;;;26.10;44.90;;;;;;5050290;28;19913;-61
2022/08/08 11:02:50;;;;;;;;;;;26.10;44.80;;;;;;5045625;28;19917;-60
2022/08/08 11:05:16;;;;;;;;;;;26.20;44.80;;;;;;5053365;28;20417;-61
2022/08/08 11:07:46;;;;;;;;;;;26.20;44.80;;;;;;5050714;28;19927;-61
2022/08/08 11:10:13;;;;;;;;;;;26.20;44.90;;;;;;5047015;28;20340;-61
2022/08/08 11:12:46;;;;;;;;;;;26.10;44.80;;;;;;5045736;28;20289;-62
2022/08/08 11:15:15;;;;;;;;;;;26.10;44.70;;;;;;5047921;28;20293;-62
2022/08/08 11:17:40;;;;;;;;;;;26.10;44.70;;;;;;5045561;28;19921;-60
2022/08/08 11:20:08;;;;;;;;;;;26.10;44.60;;;;;;5049153;28;20035;-61
2022/08/08 11:22:33;;;;;;;;;;;26.10;44.70;;;;;;5051558;28;20365;-61
2022/08/08 11:25:00;;;;;;;;;;;26.10;44.60;;;;;;5051612;28;19962;-61
2022/08/08 11:27:28;;;;;;;;;;;26.10;44.70;;;;;;5050551;28;19963;-60
2022/08/08 11:29:54;;;;;;;;;;;26.10;44.70;;;;;;5045780;28;19994;-62
2022/08/08 11:32:21;;;;;;;;;;;26.10;44.70;;;;;;5040135;28;19917;-62
2022/08/08 11:34:46;;;;;;;;;;;26.20;44.60;;;;;;5041775;28;19960;-61
2022/08/08 11:37:12;;;;;;;;;;;26.20;44.50;;;;;;5041909;28;20002;-61
2022/08/08 11:39:37;;;;;;;;;;;26.30;44.40;;;;;;5051384;28;20305;-61
2022/08/08 11:42:03;;;;;;;;;;;26.20;44.20;;;;;;5045453;28;20347;-62
2022/08/08 11:44:28;;;;;;;;;;;26.20;44.10;;;;;;5044220;28;20339;-62
2022/08/08 11:46:56;;;;;;;;;;;26.10;44.30;;;;;;5037842;28;19935;-62
2022/08/08 11:49:22;;;;;;;;;;;26.20;44.20;;;;;;5041724;28;19917;-62
2022/08/08 11:51:47;;;;;;;;;;;26.10;44.20;;;;;;5044544;28;19921;-61
2022/08/08 11:54:13;;;;;;;;;;;26.20;44.10;;;;;;5048252;28;20363;-62
2022/08/08 11:56:38;;;;;;;;;;;26.20;43.90;;;;;;5042793;28;19964;-62
2022/08/08 11:59:04;;;;;;;;;;;26.20;43.90;;;;;;5042020;28;20019;-62
2022/08/08 12:01:30;;;;;;;;;;;26.20;43.90;;;;;;5042218;28;20289;-62
2022/08/08 12:03:56;;;;;;;;;;;26.20;44.00;;;;;;5047742;28;19928;-62
2022/08/08 12:06:21;;;;;;;;;;;26.20;44.80;;;;;;5044451;28;19917;-62
2022/08/08 12:08:48;;;;;;;;;;;26.10;44.20;;;;;;5038303;28;19921;-62
2022/08/08 12:11:14;;;;;;;;;;;26.20;44.30;;;;;;5044445;28;20301;-62
2022/08/08 12:13:48;;;;;;;;;;;26.20;44.20;;;;;;5153850;27;19919;-61
2022/08/08 12:16:17;;;;;;;;;;;26.20;43.90;;;;;;5137906;27;20350;-61
2022/08/08 12:18:44;;;;;;;;;;;26.30;44.00;;;;;;5143356;27;20369;-62
2022/08/08 12:21:28;;;;;;;;;;;26.30;44.00;;;;;;5138302;27;19938;-62
2022/08/08 12:24:06;;;;;;;;;;;26.30;44.00;;;;;;5139597;27;19938;-62
2022/08/08 12:26:35;;;;;;;;;;;26.40;43.90;;;;;;5141189;27;20293;-62
2022/08/08 12:29:01;;;;;;;;;;;26.30;43.90;;;;;;5143533;27;19918;-62
2022/08/08 12:31:33;;;;;;;;;;;26.40;43.90;;;;;;5136824;27;20283;-61
2022/08/08 12:33:58;;;;;;;;;;;26.40;43.90;;;;;;5139232;27;19967;-61
2022/08/08 12:36:24;;;;;;;;;;;26.40;44.00;;;;;;5143829;27;19911;-61
2022/08/08 12:38:52;;;;;;;;;;;26.40;43.60;;;;;;5138545;27;19915;-62
2022/08/08 12:41:21;;;;;;;;;;;26.50;43.60;;;;;;5140938;27;20306;-61
2022/08/08 12:43:46;;;;;;;;;;;26.50;43.60;;;;;;5144148;27;19937;-61
2022/08/08 12:46:12;;;;;;;;;;;26.50;43.20;;;;;;5142737;27;19919;-62
2022/08/08 12:48:38;;;;;;;;;;;26.50;43.00;;;;;;5145642;27;20044;-61
2022/08/08 12:51:03;;;;;;;;;;;26.50;43.00;;;;;;5145964;27;20422;-61
2022/08/08 12:53:30;;;;;;;;;;;26.50;43.00;;;;;;5137855;27;19915;-62
2022/08/08 12:55:56;;;;;;;;;;;26.60;42.40;;;;;;5140379;27;19915;-62
2022/08/08 12:58:25;;;;;;;;;;;26.60;42.50;;;;;;5141254;27;19911;-61
2022/08/08 13:00:50;;;;;;;;;;;26.60;42.20;;;;;;5128213;27;20359;-61
2022/08/08 13:03:26;;;;;;;;;;;26.50;42.30;;;;;;5135307;27;19919;-61
2022/08/08 13:06:01;;;;;;;;;;;26.40;42.30;;;;;;5137661;27;20008;-61
2022/08/08 13:08:36;;;;;;;;;;;26.30;42.40;;;;;;5121671;28;20354;-62
2022/08/08 13:11:01;;;;;;;;;;;26.30;42.70;;;;;;5106513;27;19911;-62
2022/08/08 13:13:32;;;;;;;;;;;26.30;42.40;;;;;;5103340;28;20646;-61
2022/08/08 13:16:15;;;;;;;;;;;26.40;42.50;;;;;;5081007;28;20361;-61
2022/08/08 13:18:41;;;;;;;;;;;26.40;42.30;;;;;;5080072;28;19942;-62
2022/08/08 13:21:06;;;;;;;;;;;26.40;42.10;;;;;;5104457;28;19916;-61
2022/08/08 13:23:32;;;;;;;;;;;26.40;42.00;;;;;;5097707;28;19977;-61
2022/08/08 13:25:57;;;;;;;;;;;26.50;42.00;;;;;;5068033;28;19912;-61
2022/08/08 13:28:29;;;;;;;;;;;26.60;42.00;;;;;;5085673;28;19920;-61
2022/08/08 13:30:55;;;;;;;;;;;26.60;42.00;;;;;;5083852;28;20410;-61
2022/08/08 13:33:21;;;;;;;;;;;26.60;41.90;;;;;;5086597;28;19927;-61
2022/08/08 13:35:46;;;;;;;;;;;26.60;41.70;;;;;;5084740;28;19916;-63
2022/08/08 13:38:12;;;;;;;;;;;26.50;41.80;;;;;;5088936;28;19977;-61
2022/08/08 13:40:37;;;;;;;;;;;26.50;41.90;;;;;;5081203;28;20073;-60
2022/08/08 13:43:02;;;;;;;;;;;26.50;41.90;;;;;;5069494;28;19963;-60
2022/08/08 13:45:28;;;;;;;;;;;26.60;42.00;;;;;;5070386;28;19916;-59
2022/08/08 13:47:54;;;;;;;;;;;26.60;41.90;;;;;;5088867;28;19916;-62
2022/08/08 13:50:20;;;;;;;;;;;26.60;41.80;;;;;;5089472;28;19916;-61
2022/08/08 13:52:46;;;;;;;;;;;26.60;41.60;;;;;;5087410;28;19924;-61
2022/08/08 13:55:11;;;;;;;;;;;26.60;41.80;;;;;;5088284;28;19912;-61
2022/08/08 13:57:37;;;;;;;;;;;26.60;41.70;;;;;;5085920;28;19912;-63
2022/08/08 14:00:09;;;;;;;;;;;26.60;41.80;;;;;;5086191;28;19965;-62
2022/08/08 14:02:35;;;;;;;;;;;26.60;41.70;;;;;;5088413;28;19969;-61
2022/08/08 14:05:02;;;;;;;;;;;26.60;41.70;;;;;;5072611;28;20011;-61
2022/08/08 14:07:28;;;;;;;;;;;26.50;41.60;;;;;;5085779;28;19913;-60
2022/08/08 14:09:57;;;;;;;;;;;26.60;42.20;;;;;;5085725;28;19920;-61
2022/08/08 14:12:26;;;;;;;;;;;26.50;42.70;;;;;;5087779;28;19920;-60
2022/08/08 14:14:51;;;;;;;;;;;26.50;42.80;;;;;;5083222;28;19916;-61
2022/08/08 14:17:17;;;;;;;;;;;26.50;43.20;;;;;;5068140;28;20376;-61
2022/08/08 14:19:43;;;;;;;;;;;26.50;43.40;;;;;;5071965;28;20049;-59
2022/08/08 14:22:15;;;;;;;;;;;26.50;43.60;;;;;;5087094;28;20445;-61
2022/08/08 14:24:45;;;;;;;;;;;26.50;43.80;;;;;;5069341;28;20295;-61
2022/08/08 14:27:17;;;;;;;;;;;26.50;44.10;;;;;;5064950;28;19913;-62
2022/08/08 14:30:13;;;;;;;;;;;26.50;44.20;;;;;;5087108;28;19915;-61
2022/08/08 14:32:45;;;;;;;;;;;26.40;44.40;;;;;;5059576;28;19943;-61
2022/08/08 14:35:11;;;;;;;;;;;26.50;44.40;;;;;;5085478;28;19950;-60
2022/08/08 14:37:41;;;;;;;;;;;26.50;44.40;;;;;;5085620;28;20460;-60